sensor_id;sensor_type;location;lat;lon;timestamp;P1;durP1;ratioP1;P2;durP2;ratioP2
19251;SDS011;9760;50.944;5.304;2023-04-08T00:00:33;23.20;;;5.30;;
19251;SDS011;9760;50.944;5.304;2023-04-08T00:03:00;21.83;;;5.50;;
19251;SDS011;9760;50.944;5.304;2023-04-08T00:05:26;22.07;;;5.33;;
19251;SDS011;9760;50.944;5.304;2023-04-08T00:07:51;13.83;;;5.40;;
19251;SDS011;9760;50.944;5.304;2023-04-08T00:10:17;22.27;;;5.70;;
19251;SDS011;9760;50.944;5.304;2023-04-08T00:12:43;19.70;;;5.40;;
19251;SDS011;9760;50.944;5.304;2023-04-08T00:15:09;19.60;;;5.13;;
19251;SDS011;9760;50.944;5.304;2023-04-08T00:17:35;21.07;;;5.33;;
19251;SDS011;9760;50.944;5.304;2023-04-08T00:20:01;24.67;;;5.30;;
19251;SDS011;9760;50.944;5.304;2023-04-08T00:22:27;20.77;;;5.77;;
19251;SDS011;9760;50.944;5.304;2023-04-08T00:24:52;16.00;;;5.20;;
19251;SDS011;9760;50.944;5.304;2023-04-08T00:27:18;22.17;;;5.43;;
19251;SDS011;9760;50.944;5.304;2023-04-08T00:29:43;15.70;;;5.40;;
19251;SDS011;9760;50.944;5.304;2023-04-08T00:32:09;16.57;;;6.13;;
19251;SDS011;9760;50.944;5.304;2023-04-08T00:34:35;16.40;;;5.50;;
19251;SDS011;9760;50.944;5.304;2023-04-08T00:37:01;22.57;;;5.93;;
19251;SDS011;9760;50.944;5.304;2023-04-08T00:39:27;25.10;;;6.00;;
19251;SDS011;9760;50.944;5.304;2023-04-08T00:41:52;21.73;;;6.33;;
19251;SDS011;9760;50.944;5.304;2023-04-08T00:44:18;28.20;;;6.67;;
19251;SDS011;9760;50.944;5.304;2023-04-08T00:46:44;20.57;;;5.80;;
19251;SDS011;9760;50.944;5.304;2023-04-08T00:49:10;13.23;;;5.93;;
19251;SDS011;9760;50.944;5.304;2023-04-08T00:51:36;22.17;;;5.77;;
19251;SDS011;9760;50.944;5.304;2023-04-08T00:54:02;21.53;;;5.80;;
19251;SDS011;9760;50.944;5.304;2023-04-08T00:56:28;22.90;;;6.03;;
19251;SDS011;9760;50.944;5.304;2023-04-08T00:58:56;22.10;;;5.77;;
19251;SDS011;9760;50.944;5.304;2023-04-08T01:07:00;21.70;;;6.00;;
19251;SDS011;9760;50.944;5.304;2023-04-08T01:09:31;19.57;;;6.07;;
19251;SDS011;9760;50.944;5.304;2023-04-08T01:12:01;24.13;;;6.37;;
19251;SDS011;9760;50.944;5.304;2023-04-08T01:14:30;20.43;;;6.20;;
19251;SDS011;9760;50.944;5.304;2023-04-08T01:16:59;24.10;;;6.50;;
19251;SDS011;9760;50.944;5.304;2023-04-08T01:19:33;20.20;;;6.43;;
19251;SDS011;9760;50.944;5.304;2023-04-08T01:22:20;19.03;;;6.03;;
19251;SDS011;9760;50.944;5.304;2023-04-08T01:25:03;27.13;;;6.63;;
19251;SDS011;9760;50.944;5.304;2023-04-08T01:27:32;19.93;;;5.90;;
19251;SDS011;9760;50.944;5.304;2023-04-08T01:30:00;17.80;;;5.93;;
19251;SDS011;9760;50.944;5.304;2023-04-08T01:32:27;24.77;;;6.43;;
19251;SDS011;9760;50.944;5.304;2023-04-08T01:34:55;24.00;;;6.90;;
19251;SDS011;9760;50.944;5.304;2023-04-08T01:37:22;27.77;;;6.90;;
19251;SDS011;9760;50.944;5.304;2023-04-08T01:39:49;23.07;;;7.23;;
19251;SDS011;9760;50.944;5.304;2023-04-08T01:42:16;27.53;;;7.57;;
19251;SDS011;9760;50.944;5.304;2023-04-08T01:44:42;24.70;;;7.97;;
19251;SDS011;9760;50.944;5.304;2023-04-08T01:47:09;25.73;;;7.70;;
19251;SDS011;9760;50.944;5.304;2023-04-08T01:49:37;18.50;;;6.77;;
19251;SDS011;9760;50.944;5.304;2023-04-08T01:52:04;15.90;;;5.93;;
19251;SDS011;9760;50.944;5.304;2023-04-08T01:54:33;19.03;;;6.90;;
19251;SDS011;9760;50.944;5.304;2023-04-08T01:56:59;21.77;;;6.37;;
19251;SDS011;9760;50.944;5.304;2023-04-08T01:59:29;20.67;;;6.73;;
19251;SDS011;9760;50.944;5.304;2023-04-08T02:01:56;22.67;;;6.87;;
19251;SDS011;9760;50.944;5.304;2023-04-08T02:04:24;22.50;;;6.83;;
19251;SDS011;9760;50.944;5.304;2023-04-08T02:06:50;25.03;;;7.40;;
19251;SDS011;9760;50.944;5.304;2023-04-08T02:09:15;23.10;;;6.87;;
19251;SDS011;9760;50.944;5.304;2023-04-08T02:11:41;32.50;;;7.20;;
19251;SDS011;9760;50.944;5.304;2023-04-08T02:14:06;19.63;;;6.70;;
19251;SDS011;9760;50.944;5.304;2023-04-08T02:16:38;21.37;;;7.23;;
19251;SDS011;9760;50.944;5.304;2023-04-08T02:19:14;25.63;;;6.30;;
19251;SDS011;9760;50.944;5.304;2023-04-08T02:21:45;26.27;;;7.17;;
19251;SDS011;9760;50.944;5.304;2023-04-08T02:24:14;23.50;;;6.73;;
19251;SDS011;9760;50.944;5.304;2023-04-08T02:26:42;29.57;;;6.97;;
19251;SDS011;9760;50.944;5.304;2023-04-08T02:29:11;19.13;;;6.70;;
19251;SDS011;9760;50.944;5.304;2023-04-08T02:31:40;32.73;;;7.93;;
19251;SDS011;9760;50.944;5.304;2023-04-08T02:34:07;19.20;;;6.97;;
19251;SDS011;9760;50.944;5.304;2023-04-08T02:36:34;29.17;;;8.13;;
19251;SDS011;9760;50.944;5.304;2023-04-08T02:39:00;17.53;;;6.10;;
19251;SDS011;9760;50.944;5.304;2023-04-08T02:41:27;18.17;;;6.37;;
19251;SDS011;9760;50.944;5.304;2023-04-08T02:43:54;32.90;;;7.70;;
19251;SDS011;9760;50.944;5.304;2023-04-08T02:46:19;27.33;;;7.57;;
19251;SDS011;9760;50.944;5.304;2023-04-08T02:48:45;24.93;;;7.23;;
19251;SDS011;9760;50.944;5.304;2023-04-08T02:51:11;20.07;;;7.27;;
19251;SDS011;9760;50.944;5.304;2023-04-08T02:53:37;22.80;;;6.83;;
19251;SDS011;9760;50.944;5.304;2023-04-08T02:56:02;29.50;;;7.60;;
19251;SDS011;9760;50.944;5.304;2023-04-08T02:58:28;25.67;;;7.93;;
19251;SDS011;9760;50.944;5.304;2023-04-08T03:00:54;19.70;;;7.03;;
19251;SDS011;9760;50.944;5.304;2023-04-08T03:03:20;22.13;;;7.77;;
19251;SDS011;9760;50.944;5.304;2023-04-08T03:05:51;28.80;;;8.10;;
19251;SDS011;9760;50.944;5.304;2023-04-08T03:08:18;29.20;;;8.20;;
19251;SDS011;9760;50.944;5.304;2023-04-08T03:10:44;32.63;;;7.87;;
19251;SDS011;9760;50.944;5.304;2023-04-08T03:13:09;26.60;;;7.33;;
19251;SDS011;9760;50.944;5.304;2023-04-08T03:15:35;22.27;;;7.87;;
19251;SDS011;9760;50.944;5.304;2023-04-08T03:18:01;30.07;;;8.77;;
19251;SDS011;9760;50.944;5.304;2023-04-08T03:20:27;26.80;;;7.80;;
19251;SDS011;9760;50.944;5.304;2023-04-08T03:22:52;25.43;;;8.33;;
19251;SDS011;9760;50.944;5.304;2023-04-08T03:25:18;28.47;;;8.07;;
19251;SDS011;9760;50.944;5.304;2023-04-08T03:27:44;28.43;;;9.33;;
19251;SDS011;9760;50.944;5.304;2023-04-08T03:30:10;35.43;;;9.03;;
19251;SDS011;9760;50.944;5.304;2023-04-08T03:32:36;33.23;;;10.00;;
19251;SDS011;9760;50.944;5.304;2023-04-08T03:35:01;26.13;;;9.23;;
19251;SDS011;9760;50.944;5.304;2023-04-08T03:37:27;32.10;;;8.93;;
19251;SDS011;9760;50.944;5.304;2023-04-08T03:39:53;23.87;;;9.53;;
19251;SDS011;9760;50.944;5.304;2023-04-08T03:42:19;36.27;;;8.80;;
19251;SDS011;9760;50.944;5.304;2023-04-08T03:44:45;22.43;;;10.07;;
19251;SDS011;9760;50.944;5.304;2023-04-08T03:47:10;26.40;;;8.77;;
19251;SDS011;9760;50.944;5.304;2023-04-08T03:49:36;23.60;;;8.87;;
19251;SDS011;9760;50.944;5.304;2023-04-08T03:52:02;37.03;;;9.33;;
19251;SDS011;9760;50.944;5.304;2023-04-08T03:54:27;31.23;;;9.87;;
19251;SDS011;9760;50.944;5.304;2023-04-08T03:56:53;33.10;;;10.03;;
19251;SDS011;9760;50.944;5.304;2023-04-08T03:59:19;27.47;;;9.03;;
19251;SDS011;9760;50.944;5.304;2023-04-08T04:01:44;25.43;;;9.33;;
19251;SDS011;9760;50.944;5.304;2023-04-08T04:04:11;21.60;;;9.13;;
19251;SDS011;9760;50.944;5.304;2023-04-08T04:06:37;27.97;;;9.47;;
19251;SDS011;9760;50.944;5.304;2023-04-08T04:09:02;27.73;;;10.13;;
19251;SDS011;9760;50.944;5.304;2023-04-08T04:11:28;31.30;;;9.80;;
19251;SDS011;9760;50.944;5.304;2023-04-08T04:13:54;21.63;;;9.57;;
19251;SDS011;9760;50.944;5.304;2023-04-08T04:16:19;42.93;;;10.33;;
19251;SDS011;9760;50.944;5.304;2023-04-08T04:18:45;23.77;;;8.83;;
19251;SDS011;9760;50.944;5.304;2023-04-08T04:21:11;33.77;;;8.93;;
19251;SDS011;9760;50.944;5.304;2023-04-08T04:23:36;27.37;;;9.83;;
19251;SDS011;9760;50.944;5.304;2023-04-08T04:26:07;27.63;;;8.93;;
19251;SDS011;9760;50.944;5.304;2023-04-08T04:28:33;31.70;;;8.77;;
19251;SDS011;9760;50.944;5.304;2023-04-08T04:31:00;29.83;;;9.37;;
19251;SDS011;9760;50.944;5.304;2023-04-08T04:33:25;33.67;;;10.07;;
19251;SDS011;9760;50.944;5.304;2023-04-08T04:35:51;25.90;;;10.43;;
19251;SDS011;9760;50.944;5.304;2023-04-08T04:38:17;31.73;;;10.37;;
19251;SDS011;9760;50.944;5.304;2023-04-08T04:40:42;29.03;;;10.87;;
19251;SDS011;9760;50.944;5.304;2023-04-08T04:43:08;31.27;;;11.43;;
19251;SDS011;9760;50.944;5.304;2023-04-08T04:45:34;36.97;;;10.87;;
19251;SDS011;9760;50.944;5.304;2023-04-08T04:48:00;35.77;;;10.87;;
19251;SDS011;9760;50.944;5.304;2023-04-08T04:50:25;34.77;;;10.83;;
19251;SDS011;9760;50.944;5.304;2023-04-08T04:52:51;33.43;;;9.50;;
19251;SDS011;9760;50.944;5.304;2023-04-08T04:55:17;31.90;;;10.23;;
19251;SDS011;9760;50.944;5.304;2023-04-08T04:57:42;29.03;;;10.20;;
19251;SDS011;9760;50.944;5.304;2023-04-08T05:00:11;34.20;;;10.03;;
19251;SDS011;9760;50.944;5.304;2023-04-08T05:02:37;30.80;;;11.10;;
19251;SDS011;9760;50.944;5.304;2023-04-08T05:05:02;29.93;;;11.40;;
19251;SDS011;9760;50.944;5.304;2023-04-08T05:07:28;31.83;;;12.20;;
19251;SDS011;9760;50.944;5.304;2023-04-08T05:09:54;41.20;;;13.23;;
19251;SDS011;9760;50.944;5.304;2023-04-08T05:12:20;34.53;;;13.07;;
19251;SDS011;9760;50.944;5.304;2023-04-08T05:14:45;36.53;;;12.40;;
19251;SDS011;9760;50.944;5.304;2023-04-08T05:17:11;30.50;;;11.90;;
19251;SDS011;9760;50.944;5.304;2023-04-08T05:19:37;35.47;;;12.83;;
19251;SDS011;9760;50.944;5.304;2023-04-08T05:22:02;33.53;;;12.37;;
19251;SDS011;9760;50.944;5.304;2023-04-08T05:24:28;37.13;;;13.13;;
19251;SDS011;9760;50.944;5.304;2023-04-08T05:26:53;38.67;;;14.30;;
19251;SDS011;9760;50.944;5.304;2023-04-08T05:29:21;45.20;;;16.13;;
19251;SDS011;9760;50.944;5.304;2023-04-08T05:31:47;49.93;;;14.80;;
19251;SDS011;9760;50.944;5.304;2023-04-08T05:34:13;54.50;;;17.87;;
19251;SDS011;9760;50.944;5.304;2023-04-08T05:36:39;54.37;;;18.67;;
19251;SDS011;9760;50.944;5.304;2023-04-08T05:39:05;59.20;;;19.73;;
19251;SDS011;9760;50.944;5.304;2023-04-08T05:41:31;51.80;;;19.23;;
19251;SDS011;9760;50.944;5.304;2023-04-08T05:43:56;56.83;;;20.60;;
19251;SDS011;9760;50.944;5.304;2023-04-08T05:46:22;62.10;;;21.33;;
19251;SDS011;9760;50.944;5.304;2023-04-08T05:48:47;73.97;;;20.20;;
19251;SDS011;9760;50.944;5.304;2023-04-08T05:51:13;65.27;;;21.23;;
19251;SDS011;9760;50.944;5.304;2023-04-08T05:53:40;63.47;;;20.63;;
19251;SDS011;9760;50.944;5.304;2023-04-08T05:56:05;63.33;;;19.90;;
19251;SDS011;9760;50.944;5.304;2023-04-08T05:58:31;72.90;;;21.37;;
19251;SDS011;9760;50.944;5.304;2023-04-08T06:00:57;63.80;;;21.40;;
19251;SDS011;9760;50.944;5.304;2023-04-08T06:03:23;58.27;;;20.17;;
19251;SDS011;9760;50.944;5.304;2023-04-08T06:05:48;62.70;;;20.87;;
19251;SDS011;9760;50.944;5.304;2023-04-08T06:08:14;60.93;;;21.63;;
19251;SDS011;9760;50.944;5.304;2023-04-08T06:10:46;69.63;;;22.10;;
19251;SDS011;9760;50.944;5.304;2023-04-08T06:13:13;68.90;;;22.93;;
19251;SDS011;9760;50.944;5.304;2023-04-08T06:15:40;63.87;;;22.90;;
19251;SDS011;9760;50.944;5.304;2023-04-08T06:18:05;75.47;;;23.07;;
19251;SDS011;9760;50.944;5.304;2023-04-08T06:20:31;61.27;;;21.67;;
19251;SDS011;9760;50.944;5.304;2023-04-08T06:22:56;75.57;;;23.87;;
19251;SDS011;9760;50.944;5.304;2023-04-08T06:25:22;86.43;;;22.67;;
19251;SDS011;9760;50.944;5.304;2023-04-08T06:27:48;69.83;;;22.70;;
19251;SDS011;9760;50.944;5.304;2023-04-08T06:30:13;73.20;;;22.67;;
19251;SDS011;9760;50.944;5.304;2023-04-08T06:32:40;65.07;;;21.13;;
19251;SDS011;9760;50.944;5.304;2023-04-08T06:35:06;68.40;;;21.07;;
19251;SDS011;9760;50.944;5.304;2023-04-08T06:37:32;68.63;;;22.03;;
19251;SDS011;9760;50.944;5.304;2023-04-08T06:40:02;73.17;;;23.63;;
19251;SDS011;9760;50.944;5.304;2023-04-08T06:42:31;68.27;;;23.33;;
19251;SDS011;9760;50.944;5.304;2023-04-08T06:44:56;56.77;;;22.50;;
19251;SDS011;9760;50.944;5.304;2023-04-08T06:47:22;56.73;;;23.50;;
19251;SDS011;9760;50.944;5.304;2023-04-08T06:49:48;52.03;;;22.30;;
19251;SDS011;9760;50.944;5.304;2023-04-08T06:52:13;63.57;;;22.93;;
19251;SDS011;9760;50.944;5.304;2023-04-08T06:54:39;64.80;;;23.10;;
19251;SDS011;9760;50.944;5.304;2023-04-08T06:57:05;55.77;;;22.50;;
19251;SDS011;9760;50.944;5.304;2023-04-08T06:59:31;61.37;;;22.57;;
19251;SDS011;9760;50.944;5.304;2023-04-08T07:01:56;62.80;;;23.97;;
19251;SDS011;9760;50.944;5.304;2023-04-08T07:04:22;65.03;;;24.27;;
19251;SDS011;9760;50.944;5.304;2023-04-08T07:06:48;63.33;;;24.50;;
19251;SDS011;9760;50.944;5.304;2023-04-08T07:09:14;61.00;;;24.03;;
19251;SDS011;9760;50.944;5.304;2023-04-08T07:11:39;64.70;;;23.73;;
19251;SDS011;9760;50.944;5.304;2023-04-08T07:14:05;62.53;;;24.70;;
19251;SDS011;9760;50.944;5.304;2023-04-08T07:16:30;67.17;;;22.87;;
19251;SDS011;9760;50.944;5.304;2023-04-08T07:18:56;64.47;;;23.80;;
19251;SDS011;9760;50.944;5.304;2023-04-08T07:21:22;59.97;;;22.10;;
19251;SDS011;9760;50.944;5.304;2023-04-08T07:23:47;60.83;;;24.47;;
19251;SDS011;9760;50.944;5.304;2023-04-08T07:26:13;58.63;;;21.90;;
19251;SDS011;9760;50.944;5.304;2023-04-08T07:28:39;65.70;;;24.37;;
19251;SDS011;9760;50.944;5.304;2023-04-08T07:31:11;71.67;;;23.80;;
19251;SDS011;9760;50.944;5.304;2023-04-08T07:33:38;51.60;;;22.77;;
19251;SDS011;9760;50.944;5.304;2023-04-08T07:36:03;59.23;;;22.77;;
19251;SDS011;9760;50.944;5.304;2023-04-08T07:38:29;62.00;;;24.13;;
19251;SDS011;9760;50.944;5.304;2023-04-08T07:40:55;59.37;;;22.33;;
19251;SDS011;9760;50.944;5.304;2023-04-08T07:43:20;55.50;;;23.50;;
19251;SDS011;9760;50.944;5.304;2023-04-08T07:45:46;49.33;;;21.10;;
19251;SDS011;9760;50.944;5.304;2023-04-08T07:48:12;46.47;;;21.27;;
19251;SDS011;9760;50.944;5.304;2023-04-08T07:50:37;50.60;;;21.17;;
19251;SDS011;9760;50.944;5.304;2023-04-08T07:53:03;53.87;;;21.73;;
19251;SDS011;9760;50.944;5.304;2023-04-08T07:55:37;56.50;;;21.13;;
19251;SDS011;9760;50.944;5.304;2023-04-08T07:58:04;47.80;;;21.40;;
19251;SDS011;9760;50.944;5.304;2023-04-08T08:00:30;52.03;;;21.50;;
19251;SDS011;9760;50.944;5.304;2023-04-08T08:02:57;46.90;;;20.80;;
19251;SDS011;9760;50.944;5.304;2023-04-08T08:05:22;45.80;;;20.23;;
19251;SDS011;9760;50.944;5.304;2023-04-08T08:07:48;48.17;;;20.07;;
19251;SDS011;9760;50.944;5.304;2023-04-08T08:10:14;44.93;;;19.20;;
19251;SDS011;9760;50.944;5.304;2023-04-08T08:12:40;39.80;;;17.70;;
19251;SDS011;9760;50.944;5.304;2023-04-08T08:15:06;42.77;;;19.20;;
19251;SDS011;9760;50.944;5.304;2023-04-08T08:17:32;40.70;;;18.37;;
19251;SDS011;9760;50.944;5.304;2023-04-08T08:19:58;41.53;;;18.73;;
19251;SDS011;9760;50.944;5.304;2023-04-08T08:22:25;46.37;;;18.57;;
19251;SDS011;9760;50.944;5.304;2023-04-08T08:24:54;36.70;;;17.43;;
19251;SDS011;9760;50.944;5.304;2023-04-08T08:27:20;42.27;;;19.03;;
19251;SDS011;9760;50.944;5.304;2023-04-08T08:29:46;41.30;;;19.43;;
19251;SDS011;9760;50.944;5.304;2023-04-08T08:32:12;42.63;;;18.43;;
19251;SDS011;9760;50.944;5.304;2023-04-08T08:34:37;41.07;;;16.53;;
19251;SDS011;9760;50.944;5.304;2023-04-08T08:37:03;30.83;;;15.30;;
19251;SDS011;9760;50.944;5.304;2023-04-08T08:39:29;34.47;;;16.27;;
19251;SDS011;9760;50.944;5.304;2023-04-08T08:41:54;38.47;;;18.60;;
19251;SDS011;9760;50.944;5.304;2023-04-08T08:44:21;37.27;;;15.83;;
19251;SDS011;9760;50.944;5.304;2023-04-08T08:46:47;38.23;;;15.87;;
19251;SDS011;9760;50.944;5.304;2023-04-08T08:49:13;34.30;;;16.23;;
19251;SDS011;9760;50.944;5.304;2023-04-08T08:51:39;32.37;;;16.30;;
19251;SDS011;9760;50.944;5.304;2023-04-08T08:54:06;33.80;;;15.77;;
19251;SDS011;9760;50.944;5.304;2023-04-08T08:56:32;33.77;;;15.00;;
19251;SDS011;9760;50.944;5.304;2023-04-08T08:58:58;26.23;;;13.23;;
19251;SDS011;9760;50.944;5.304;2023-04-08T09:01:31;31.00;;;13.67;;
19251;SDS011;9760;50.944;5.304;2023-04-08T09:04:14;30.07;;;13.10;;
19251;SDS011;9760;50.944;5.304;2023-04-08T09:06:42;23.97;;;12.30;;
19251;SDS011;9760;50.944;5.304;2023-04-08T09:09:10;28.93;;;13.67;;
19251;SDS011;9760;50.944;5.304;2023-04-08T09:11:40;21.80;;;11.00;;
19251;SDS011;9760;50.944;5.304;2023-04-08T09:14:23;22.30;;;10.13;;
19251;SDS011;9760;50.944;5.304;2023-04-08T09:16:49;25.60;;;10.77;;
19251;SDS011;9760;50.944;5.304;2023-04-08T09:19:16;24.50;;;11.63;;
19251;SDS011;9760;50.944;5.304;2023-04-08T09:21:42;21.53;;;11.37;;
19251;SDS011;9760;50.944;5.304;2023-04-08T09:24:08;21.97;;;10.30;;
19251;SDS011;9760;50.944;5.304;2023-04-08T09:26:50;22.83;;;10.40;;
19251;SDS011;9760;50.944;5.304;2023-04-08T09:29:16;22.93;;;9.87;;
19251;SDS011;9760;50.944;5.304;2023-04-08T09:31:42;26.00;;;13.03;;
19251;SDS011;9760;50.944;5.304;2023-04-08T09:34:14;20.63;;;11.00;;
19251;SDS011;9760;50.944;5.304;2023-04-08T09:36:42;22.30;;;9.83;;
19251;SDS011;9760;50.944;5.304;2023-04-08T09:39:11;25.00;;;11.47;;
19251;SDS011;9760;50.944;5.304;2023-04-08T09:41:37;24.67;;;11.10;;
19251;SDS011;9760;50.944;5.304;2023-04-08T09:44:06;25.03;;;11.47;;
19251;SDS011;9760;50.944;5.304;2023-04-08T09:52:08;17.40;;;8.63;;
19251;SDS011;9760;50.944;5.304;2023-04-08T10:00:20;38.00;;;14.87;;
19251;SDS011;9760;50.944;5.304;2023-04-08T10:05:32;36.00;;;14.57;;
19251;SDS011;9760;50.944;5.304;2023-04-08T10:08:01;27.17;;;13.63;;
19251;SDS011;9760;50.944;5.304;2023-04-08T10:10:28;29.93;;;14.17;;
19251;SDS011;9760;50.944;5.304;2023-04-08T10:12:54;33.63;;;13.47;;
19251;SDS011;9760;50.944;5.304;2023-04-08T10:15:35;26.53;;;13.37;;
19251;SDS011;9760;50.944;5.304;2023-04-08T10:25:44;34.87;;;15.07;;
19251;SDS011;9760;50.944;5.304;2023-04-08T10:30:37;33.93;;;14.53;;
19251;SDS011;9760;50.944;5.304;2023-04-08T10:33:17;33.30;;;15.90;;
19251;SDS011;9760;50.944;5.304;2023-04-08T10:38:26;33.37;;;15.37;;
19251;SDS011;9760;50.944;5.304;2023-04-08T10:40:52;30.00;;;15.37;;
19251;SDS011;9760;50.944;5.304;2023-04-08T10:43:19;32.40;;;13.97;;
19251;SDS011;9760;50.944;5.304;2023-04-08T10:45:44;29.90;;;14.17;;
19251;SDS011;9760;50.944;5.304;2023-04-08T10:48:20;30.77;;;14.57;;
19251;SDS011;9760;50.944;5.304;2023-04-08T10:50:58;36.20;;;16.27;;
19251;SDS011;9760;50.944;5.304;2023-04-08T10:53:34;31.00;;;14.77;;
19251;SDS011;9760;50.944;5.304;2023-04-08T10:56:08;32.27;;;14.80;;
19251;SDS011;9760;50.944;5.304;2023-04-08T10:58:52;31.40;;;15.67;;
19251;SDS011;9760;50.944;5.304;2023-04-08T11:01:23;31.30;;;15.20;;
19251;SDS011;9760;50.944;5.304;2023-04-08T11:03:48;31.63;;;13.87;;
19251;SDS011;9760;50.944;5.304;2023-04-08T11:06:14;25.33;;;12.63;;
19251;SDS011;9760;50.944;5.304;2023-04-08T11:08:41;30.00;;;13.20;;
19251;SDS011;9760;50.944;5.304;2023-04-08T11:11:08;28.93;;;12.87;;
19251;SDS011;9760;50.944;5.304;2023-04-08T11:13:36;25.10;;;12.20;;
19251;SDS011;9760;50.944;5.304;2023-04-08T11:16:05;27.97;;;13.40;;
19251;SDS011;9760;50.944;5.304;2023-04-08T11:18:41;22.17;;;12.83;;
19251;SDS011;9760;50.944;5.304;2023-04-08T11:21:07;23.43;;;12.27;;
19251;SDS011;9760;50.944;5.304;2023-04-08T11:23:34;24.90;;;11.63;;
19251;SDS011;9760;50.944;5.304;2023-04-08T11:26:00;21.43;;;12.47;;
19251;SDS011;9760;50.944;5.304;2023-04-08T11:28:27;24.23;;;12.60;;
19251;SDS011;9760;50.944;5.304;2023-04-08T11:30:53;25.77;;;13.97;;
19251;SDS011;9760;50.944;5.304;2023-04-08T11:33:19;23.30;;;12.80;;
19251;SDS011;9760;50.944;5.304;2023-04-08T11:35:49;23.33;;;12.50;;
19251;SDS011;9760;50.944;5.304;2023-04-08T11:38:15;22.57;;;12.73;;
19251;SDS011;9760;50.944;5.304;2023-04-08T11:40:52;24.37;;;13.33;;
19251;SDS011;9760;50.944;5.304;2023-04-08T11:43:19;23.07;;;12.37;;
19251;SDS011;9760;50.944;5.304;2023-04-08T11:45:45;24.40;;;12.67;;
19251;SDS011;9760;50.944;5.304;2023-04-08T11:48:11;23.37;;;13.60;;
19251;SDS011;9760;50.944;5.304;2023-04-08T11:50:39;23.50;;;12.70;;
19251;SDS011;9760;50.944;5.304;2023-04-08T11:58:43;24.37;;;12.23;;
19251;SDS011;9760;50.944;5.304;2023-04-08T12:01:10;28.43;;;12.53;;
19251;SDS011;9760;50.944;5.304;2023-04-08T12:03:35;20.77;;;11.40;;
19251;SDS011;9760;50.944;5.304;2023-04-08T12:06:01;22.23;;;11.97;;
19251;SDS011;9760;50.944;5.304;2023-04-08T12:08:28;22.77;;;11.83;;
19251;SDS011;9760;50.944;5.304;2023-04-08T12:10:54;20.27;;;12.30;;
19251;SDS011;9760;50.944;5.304;2023-04-08T12:13:19;24.40;;;12.30;;
19251;SDS011;9760;50.944;5.304;2023-04-08T12:15:45;24.30;;;12.47;;
19251;SDS011;9760;50.944;5.304;2023-04-08T12:18:11;29.63;;;14.10;;
19251;SDS011;9760;50.944;5.304;2023-04-08T12:20:36;25.40;;;12.97;;
19251;SDS011;9760;50.944;5.304;2023-04-08T12:23:02;29.73;;;13.83;;
19251;SDS011;9760;50.944;5.304;2023-04-08T12:25:27;21.17;;;12.50;;
19251;SDS011;9760;50.944;5.304;2023-04-08T12:27:55;23.33;;;12.73;;
19251;SDS011;9760;50.944;5.304;2023-04-08T12:30:20;24.97;;;12.57;;
19251;SDS011;9760;50.944;5.304;2023-04-08T12:32:46;30.47;;;12.20;;
19251;SDS011;9760;50.944;5.304;2023-04-08T12:35:12;23.77;;;12.57;;
19251;SDS011;9760;50.944;5.304;2023-04-08T12:37:38;23.30;;;12.30;;
19251;SDS011;9760;50.944;5.304;2023-04-08T12:40:04;20.40;;;11.63;;
19251;SDS011;9760;50.944;5.304;2023-04-08T12:42:31;20.23;;;11.47;;
19251;SDS011;9760;50.944;5.304;2023-04-08T12:44:57;20.40;;;12.17;;
19251;SDS011;9760;50.944;5.304;2023-04-08T12:47:22;23.27;;;12.20;;
19251;SDS011;9760;50.944;5.304;2023-04-08T12:49:48;22.97;;;11.93;;
19251;SDS011;9760;50.944;5.304;2023-04-08T12:52:14;24.70;;;11.33;;
19251;SDS011;9760;50.944;5.304;2023-04-08T12:54:39;19.93;;;11.57;;
19251;SDS011;9760;50.944;5.304;2023-04-08T12:57:05;20.67;;;10.50;;
19251;SDS011;9760;50.944;5.304;2023-04-08T12:59:31;18.17;;;10.50;;
19251;SDS011;9760;50.944;5.304;2023-04-08T13:01:57;18.67;;;10.13;;
19251;SDS011;9760;50.944;5.304;2023-04-08T13:04:26;17.23;;;10.37;;
19251;SDS011;9760;50.944;5.304;2023-04-08T13:06:51;18.60;;;11.20;;
19251;SDS011;9760;50.944;5.304;2023-04-08T13:09:17;20.23;;;10.90;;
19251;SDS011;9760;50.944;5.304;2023-04-08T13:11:42;22.53;;;11.37;;
19251;SDS011;9760;50.944;5.304;2023-04-08T13:14:08;23.70;;;12.17;;
19251;SDS011;9760;50.944;5.304;2023-04-08T13:16:33;22.57;;;12.20;;
19251;SDS011;9760;50.944;5.304;2023-04-08T13:18:59;22.57;;;11.63;;
19251;SDS011;9760;50.944;5.304;2023-04-08T13:21:25;21.73;;;12.00;;
19251;SDS011;9760;50.944;5.304;2023-04-08T13:23:51;20.67;;;10.93;;
19251;SDS011;9760;50.944;5.304;2023-04-08T13:26:17;20.13;;;10.87;;
19251;SDS011;9760;50.944;5.304;2023-04-08T13:28:42;20.97;;;11.03;;
19251;SDS011;9760;50.944;5.304;2023-04-08T13:31:08;21.70;;;11.93;;
19251;SDS011;9760;50.944;5.304;2023-04-08T13:33:33;20.17;;;11.17;;
19251;SDS011;9760;50.944;5.304;2023-04-08T13:35:59;22.53;;;10.87;;
19251;SDS011;9760;50.944;5.304;2023-04-08T13:38:25;22.73;;;11.73;;
19251;SDS011;9760;50.944;5.304;2023-04-08T13:40:50;19.03;;;11.33;;
19251;SDS011;9760;50.944;5.304;2023-04-08T13:43:16;20.03;;;10.47;;
19251;SDS011;9760;50.944;5.304;2023-04-08T13:45:42;17.13;;;10.07;;
19251;SDS011;9760;50.944;5.304;2023-04-08T13:48:07;17.70;;;10.20;;
19251;SDS011;9760;50.944;5.304;2023-04-08T13:50:33;19.43;;;10.23;;
19251;SDS011;9760;50.944;5.304;2023-04-08T13:52:58;18.43;;;10.07;;
19251;SDS011;9760;50.944;5.304;2023-04-08T13:55:24;18.70;;;10.60;;
19251;SDS011;9760;50.944;5.304;2023-04-08T13:57:50;19.47;;;9.63;;
19251;SDS011;9760;50.944;5.304;2023-04-08T14:00:16;20.70;;;10.53;;
19251;SDS011;9760;50.944;5.304;2023-04-08T14:02:41;17.80;;;9.63;;
19251;SDS011;9760;50.944;5.304;2023-04-08T14:05:07;17.30;;;10.03;;
19251;SDS011;9760;50.944;5.304;2023-04-08T14:07:33;18.80;;;9.83;;
19251;SDS011;9760;50.944;5.304;2023-04-08T14:09:58;17.50;;;9.40;;
19251;SDS011;9760;50.944;5.304;2023-04-08T14:12:24;19.40;;;10.20;;
19251;SDS011;9760;50.944;5.304;2023-04-08T14:14:50;17.27;;;9.80;;
19251;SDS011;9760;50.944;5.304;2023-04-08T14:17:15;14.23;;;9.20;;
19251;SDS011;9760;50.944;5.304;2023-04-08T14:19:41;16.13;;;9.77;;
19251;SDS011;9760;50.944;5.304;2023-04-08T14:22:06;14.67;;;9.10;;
19251;SDS011;9760;50.944;5.304;2023-04-08T14:24:32;16.23;;;9.57;;
19251;SDS011;9760;50.944;5.304;2023-04-08T14:26:58;15.83;;;10.07;;
19251;SDS011;9760;50.944;5.304;2023-04-08T14:29:24;19.27;;;10.80;;
19251;SDS011;9760;50.944;5.304;2023-04-08T14:31:49;23.73;;;11.00;;
19251;SDS011;9760;50.944;5.304;2023-04-08T14:34:15;14.73;;;9.13;;
19251;SDS011;9760;50.944;5.304;2023-04-08T14:36:41;16.50;;;9.80;;
19251;SDS011;9760;50.944;5.304;2023-04-08T14:39:07;17.13;;;9.80;;
19251;SDS011;9760;50.944;5.304;2023-04-08T14:41:33;17.97;;;10.93;;
19251;SDS011;9760;50.944;5.304;2023-04-08T14:43:58;16.80;;;11.17;;
19251;SDS011;9760;50.944;5.304;2023-04-08T14:46:25;17.90;;;11.70;;
19251;SDS011;9760;50.944;5.304;2023-04-08T14:48:51;17.57;;;11.37;;
19251;SDS011;9760;50.944;5.304;2023-04-08T14:51:16;19.30;;;12.07;;
19251;SDS011;9760;50.944;5.304;2023-04-08T14:53:42;19.20;;;11.40;;
19251;SDS011;9760;50.944;5.304;2023-04-08T14:56:07;21.20;;;11.67;;
19251;SDS011;9760;50.944;5.304;2023-04-08T14:58:33;19.73;;;11.50;;
19251;SDS011;9760;50.944;5.304;2023-04-08T15:00:59;19.27;;;11.60;;
19251;SDS011;9760;50.944;5.304;2023-04-08T15:03:24;21.37;;;11.60;;
19251;SDS011;9760;50.944;5.304;2023-04-08T15:05:50;18.77;;;11.47;;
19251;SDS011;9760;50.944;5.304;2023-04-08T15:08:17;16.60;;;10.27;;
19251;SDS011;9760;50.944;5.304;2023-04-08T15:10:42;17.27;;;11.10;;
19251;SDS011;9760;50.944;5.304;2023-04-08T15:13:08;21.63;;;11.00;;